Watauga, Texas
Current Conditions -  °F | °C
As of 3:53 AM on Sunday 23 Nov 2014 (Local Time) from KFTW Reporting Station
Clear Clear  
Wind Chill: 13°   Ceiling: Unl
Heat Index: 13°   Visibility: 10mi
Dew Point: 12°   Wind: 3mph
Humidity: 90%   Direction: 200°SSW
Pressure: 29.61"   Gusts: NA
Location:  32.8687°N, 97.2516°W
Report Text: KFTW 230953Z 20003KT 10SM CLR 13/12 A2961 RMK AO2 SLP024 T01330117
Loading
Personal Weather Stations






























Interactive Weather Map New forecast layout! Learn more

10-Day Weather Forecast

Advertisements
Track Severe Weather on mobile